createdAt,value
2022-09-17T00:01:37.233Z,18.33
2022-09-17T00:04:06.668Z,18.30
2022-09-17T00:06:36.533Z,18.32
2022-09-17T00:09:06.071Z,18.33
2022-09-17T00:11:37.717Z,18.31
2022-09-17T00:14:09.353Z,18.31
2022-09-17T00:16:41.528Z,18.34
2022-09-17T00:19:14.742Z,18.36
2022-09-17T00:21:43.628Z,18.37
2022-09-17T00:24:13.748Z,18.36
2022-09-17T00:26:44.101Z,18.36
2022-09-17T00:29:12.734Z,18.33
2022-09-17T00:31:41.704Z,18.32
2022-09-17T00:34:10.306Z,18.33
2022-09-17T00:36:40.129Z,18.31
2022-09-17T00:39:10.214Z,18.31
2022-09-17T00:41:39.356Z,18.31
2022-09-17T00:44:45.076Z,18.29
2022-09-17T00:47:17.263Z,18.32
2022-09-17T00:49:45.958Z,18.34
2022-09-17T00:52:17.284Z,18.35
2022-09-17T00:54:50.059Z,18.33
2022-09-17T00:57:18.757Z,18.33
2022-09-17T00:59:48.596Z,18.25
2022-09-17T01:02:17.293Z,18.26
2022-09-17T01:04:45.922Z,18.25
2022-09-17T01:07:23.265Z,18.27
2022-09-17T01:09:56.201Z,18.23
2022-09-17T01:12:35.127Z,18.25
2022-09-17T01:15:14.787Z,18.28
2022-09-17T01:17:46.404Z,18.26
2022-09-17T01:20:53.721Z,18.29
2022-09-17T01:23:50.289Z,18.29
2022-09-17T01:26:40.594Z,18.26
2022-09-17T01:29:16.225Z,18.26
2022-09-17T01:31:49.299Z,18.28
2022-09-17T01:34:22.185Z,18.29
2022-09-17T01:36:59.336Z,18.29
2022-09-17T01:39:34.452Z,18.30
2022-09-17T01:42:11.385Z,18.30
2022-09-17T01:44:42.805Z,18.29
2022-09-17T01:47:20.193Z,18.29
2022-09-17T01:49:50.348Z,18.27
2022-09-17T01:52:20.670Z,18.28
2022-09-17T01:54:52.012Z,18.27
2022-09-17T01:57:24.410Z,18.28
2022-09-17T01:59:56.885Z,18.27
2022-09-17T02:02:29.203Z,18.26
2022-09-17T02:05:01.989Z,18.22
2022-09-17T02:07:32.715Z,18.21
2022-09-17T02:10:05.369Z,18.22
2022-09-17T02:12:37.207Z,18.20
2022-09-17T02:15:09.920Z,18.23
2022-09-17T02:17:42.012Z,18.19
2022-09-17T02:20:11.213Z,18.20
2022-09-17T02:22:43.706Z,18.21
2022-09-17T02:25:21.808Z,18.21
2022-09-17T02:27:56.293Z,18.21
2022-09-17T02:30:24.867Z,18.20
2022-09-17T02:32:55.007Z,18.21
2022-09-17T02:35:23.746Z,18.15
2022-09-17T02:37:53.219Z,18.18
2022-09-17T02:40:22.820Z,18.19
2022-09-17T02:43:05.859Z,18.18
2022-09-17T02:45:43.180Z,18.17
2022-09-17T02:48:29.764Z,18.20
2022-09-17T02:51:09.843Z,18.16
2022-09-17T02:53:42.383Z,18.19
2022-09-17T02:56:18.098Z,18.22
2022-09-17T02:58:53.699Z,18.14
2022-09-17T03:01:29.009Z,18.10
2022-09-17T03:04:00.033Z,18.09
2022-09-17T03:06:28.600Z,18.10
2022-09-17T03:08:58.074Z,18.09
2022-09-17T03:11:26.972Z,18.09
2022-09-17T03:13:55.465Z,18.11
2022-09-17T03:16:24.022Z,18.05
2022-09-17T03:18:52.527Z,18.09
2022-09-17T03:21:22.545Z,18.11
2022-09-17T03:23:51.160Z,18.11
2022-09-17T03:26:19.693Z,18.11
2022-09-17T03:28:48.319Z,18.12
2022-09-17T03:31:16.820Z,18.10
2022-09-17T03:33:45.315Z,18.09
2022-09-17T03:36:13.900Z,18.06
2022-09-17T03:38:43.705Z,18.08
2022-09-17T03:41:12.240Z,18.09
2022-09-17T03:43:40.800Z,18.07
2022-09-17T03:46:09.378Z,18.07
2022-09-17T03:48:39.648Z,18.08
2022-09-17T03:51:08.137Z,18.10
2022-09-17T03:53:36.638Z,18.09
2022-09-17T03:56:09.275Z,18.09
2022-09-17T03:58:38.857Z,18.07
2022-09-17T04:01:07.598Z,18.08
2022-09-17T04:03:36.114Z,18.06
2022-09-17T04:06:04.861Z,18.05
2022-09-17T04:08:33.927Z,18.04
2022-09-17T04:11:02.497Z,18.05
2022-09-17T04:13:32.386Z,18.04
2022-09-17T04:16:00.870Z,18.06
2022-09-17T04:18:29.730Z,18.06
2022-09-17T04:20:58.182Z,18.03
2022-09-17T04:23:26.667Z,18.04
2022-09-17T04:25:55.140Z,18.03
2022-09-17T04:28:24.710Z,18.02
2022-09-17T04:30:54.552Z,17.99
2022-09-17T04:33:23.044Z,17.99
2022-09-17T04:35:51.523Z,17.99
2022-09-17T04:38:20.662Z,17.95
2022-09-17T04:40:50.102Z,17.98
2022-09-17T04:43:19.258Z,17.99
2022-09-17T04:45:48.534Z,17.94
2022-09-17T04:48:18.714Z,17.95
2022-09-17T04:50:48.003Z,17.92
2022-09-17T04:53:17.062Z,17.90
2022-09-17T04:55:45.676Z,17.91
2022-09-17T04:58:15.139Z,17.89
2022-09-17T05:00:43.645Z,17.92
2022-09-17T05:03:12.212Z,17.86
2022-09-17T05:05:42.867Z,17.84
2022-09-17T05:08:11.948Z,17.83
2022-09-17T05:10:40.412Z,17.83
2022-09-17T05:13:08.855Z,17.82
2022-09-17T05:15:37.292Z,17.83
2022-09-17T05:18:05.839Z,17.78
2022-09-17T05:20:34.268Z,17.78
2022-09-17T05:23:04.471Z,17.82
2022-09-17T05:25:32.931Z,17.75
2022-09-17T05:28:02.041Z,17.80
2022-09-17T05:30:31.324Z,17.73
2022-09-17T05:33:02.103Z,17.75
2022-09-17T05:35:31.784Z,17.75
2022-09-17T05:38:01.330Z,17.77
2022-09-17T05:40:32.777Z,17.79
2022-09-17T05:43:02.093Z,17.80
2022-09-17T05:45:31.053Z,17.80
2022-09-17T05:48:01.149Z,17.79
2022-09-17T05:50:30.862Z,17.77
2022-09-17T05:53:05.174Z,17.75
2022-09-17T05:55:35.924Z,17.76
2022-09-17T05:58:11.126Z,17.68
2022-09-17T06:00:39.845Z,17.70
2022-09-17T06:03:09.298Z,17.70
2022-09-17T06:05:37.842Z,17.75
2022-09-17T06:08:06.634Z,17.77
2022-09-17T06:10:38.696Z,17.77
2022-09-17T06:13:07.163Z,17.76
2022-09-17T06:15:35.691Z,17.73
2022-09-17T06:18:04.312Z,17.74
2022-09-17T06:20:32.830Z,17.73
2022-09-17T06:23:01.246Z,17.70
2022-09-17T06:25:29.683Z,17.70
2022-09-17T06:27:59.498Z,17.62
2022-09-17T06:30:27.982Z,17.60
2022-09-17T06:32:56.573Z,17.63
2022-09-17T06:35:25.022Z,17.67
2022-09-17T06:37:53.414Z,17.69
2022-09-17T06:40:23.747Z,17.67
2022-09-17T06:43:00.339Z,17.69
2022-09-17T06:45:29.370Z,17.71
2022-09-17T06:47:58.068Z,17.73
2022-09-17T06:50:26.587Z,17.73
2022-09-17T06:52:55.753Z,17.75
2022-09-17T06:55:24.681Z,17.71
2022-09-17T06:57:54.188Z,17.72
2022-09-17T07:00:24.277Z,17.74
2022-09-17T07:02:58.808Z,17.68
2022-09-17T07:05:28.319Z,17.71
2022-09-17T07:07:57.635Z,17.66
2022-09-17T07:10:26.883Z,17.65
2022-09-17T07:12:55.731Z,17.58
2022-09-17T07:15:26.222Z,17.53
2022-09-17T07:17:54.832Z,17.54
2022-09-17T07:20:23.731Z,17.57
2022-09-17T07:22:58.881Z,17.62
2022-09-17T07:25:27.639Z,17.65
2022-09-17T07:27:56.591Z,17.69
2022-09-17T07:30:26.701Z,17.63
2022-09-17T07:32:55.276Z,17.57
2022-09-17T07:35:23.791Z,17.49
2022-09-17T07:37:52.245Z,17.51
2022-09-17T07:40:20.949Z,17.56
2022-09-17T07:42:49.400Z,17.61
2022-09-17T07:45:18.050Z,17.64
2022-09-17T07:47:47.823Z,17.63
2022-09-17T07:50:16.724Z,17.64
2022-09-17T07:52:47.836Z,17.59
2022-09-17T07:55:16.684Z,17.56
2022-09-17T07:57:52.387Z,17.50
2022-09-17T08:00:21.058Z,17.46
2022-09-17T08:02:55.344Z,17.45
2022-09-17T08:08:28.154Z,17.48
2022-09-17T08:10:56.757Z,17.49
2022-09-17T08:13:25.146Z,17.48
2022-09-17T08:15:53.596Z,17.45
2022-09-17T08:18:23.356Z,17.41
2022-09-17T08:20:52.661Z,17.41
2022-09-17T08:23:21.362Z,17.43
2022-09-17T08:25:53.609Z,17.43
2022-09-17T08:28:22.260Z,17.47
2022-09-17T08:30:50.727Z,17.48
2022-09-17T08:33:19.317Z,17.46
2022-09-17T08:35:53.689Z,17.48
2022-09-17T08:38:22.641Z,17.45
2022-09-17T08:41:01.840Z,17.49
2022-09-17T08:43:32.344Z,17.54
2022-09-17T08:46:03.002Z,17.54
2022-09-17T08:48:36.419Z,17.54
2022-09-17T08:51:09.527Z,17.55
2022-09-17T08:53:44.337Z,17.56
2022-09-17T08:56:14.896Z,17.56
2022-09-17T08:58:55.199Z,17.59
2022-09-17T09:01:29.200Z,17.60
2022-09-17T09:04:20.902Z,17.54
2022-09-17T09:06:53.852Z,17.56
2022-09-17T09:09:24.568Z,17.57
2022-09-17T09:12:01.769Z,17.57
2022-09-17T09:14:33.367Z,17.54
2022-09-17T09:17:05.655Z,17.56
2022-09-17T09:19:43.109Z,17.54
2022-09-17T09:22:30.981Z,17.55
2022-09-17T09:25:05.382Z,17.56
2022-09-17T09:27:40.169Z,17.49
2022-09-17T09:30:13.951Z,17.51
2022-09-17T09:32:53.220Z,17.55
2022-09-17T09:35:23.615Z,17.54
2022-09-17T09:37:58.304Z,17.46
2022-09-17T09:40:33.360Z,17.33
2022-09-17T09:43:04.826Z,17.42
2022-09-17T09:45:44.436Z,17.46
2022-09-17T09:48:18.874Z,17.47
2022-09-17T09:51:07.477Z,17.52
2022-09-17T09:53:45.665Z,17.52
2022-09-17T09:56:30.861Z,17.49
2022-09-17T09:58:59.673Z,17.52
2022-09-17T10:01:31.460Z,17.52
2022-09-17T10:03:59.985Z,17.54
2022-09-17T10:06:30.718Z,17.54
2022-09-17T10:09:14.345Z,17.53
2022-09-17T10:11:42.752Z,17.47
2022-09-17T10:14:24.290Z,17.52
2022-09-17T10:17:12.254Z,17.54
2022-09-17T10:19:40.877Z,17.75
2022-09-17T10:22:27.584Z,17.84
2022-09-17T10:24:59.276Z,17.77
2022-09-17T10:27:28.316Z,17.68
2022-09-17T10:30:03.950Z,17.65
2022-09-17T10:32:32.399Z,17.62
2022-09-17T10:35:04.362Z,17.60
2022-09-17T10:37:44.167Z,17.58
2022-09-17T10:40:31.640Z,17.51
2022-09-17T10:43:30.081Z,17.53
2022-09-17T10:46:00.315Z,17.52
2022-09-17T10:48:32.214Z,17.52
2022-09-17T10:51:03.538Z,17.53
2022-09-17T10:53:32.384Z,17.53
2022-09-17T10:56:10.674Z,17.54
2022-09-17T10:58:49.564Z,17.59
2022-09-17T11:01:34.162Z,17.60
2022-09-17T11:04:27.005Z,17.62
2022-09-17T11:07:19.364Z,17.56
2022-09-17T11:09:54.699Z,17.52
2022-09-17T11:12:41.987Z,17.52
2022-09-17T11:15:25.705Z,17.55
2022-09-17T11:18:15.568Z,17.59
2022-09-17T11:20:57.245Z,17.56
2022-09-17T11:23:47.821Z,17.56
2022-09-17T11:26:27.509Z,17.60
2022-09-17T11:29:05.330Z,17.63
2022-09-17T11:31:38.731Z,17.60
2022-09-17T11:34:22.133Z,17.60
2022-09-17T11:36:56.485Z,17.55
2022-09-17T11:39:30.122Z,17.56
2022-09-17T11:42:00.105Z,17.61
2022-09-17T11:44:33.470Z,17.56
2022-09-17T11:47:08.810Z,17.53
2022-09-17T11:49:42.820Z,17.49
2022-09-17T11:52:15.082Z,17.48
2022-09-17T11:54:48.890Z,17.51
2022-09-17T11:57:19.210Z,17.54
2022-09-17T11:59:52.385Z,17.52
2022-09-17T12:02:24.492Z,17.54
2022-09-17T12:04:59.788Z,17.57
2022-09-17T12:07:33.365Z,17.55
2022-09-17T12:10:09.661Z,17.60
2022-09-17T12:12:49.832Z,17.62
2022-09-17T12:15:23.497Z,17.65
2022-09-17T12:18:20.622Z,17.67
2022-09-17T12:20:49.073Z,17.68
2022-09-17T12:23:21.401Z,17.66
2022-09-17T12:25:54.121Z,17.66
2022-09-17T12:28:25.876Z,17.65
2022-09-17T12:31:02.352Z,17.64
2022-09-17T12:33:34.370Z,17.66
2022-09-17T12:36:29.610Z,17.71
2022-09-17T12:39:12.789Z,17.70
2022-09-17T12:41:47.772Z,17.72
2022-09-17T12:44:28.131Z,17.76
2022-09-17T12:47:32.708Z,17.76
2022-09-17T12:50:08.555Z,17.75
2022-09-17T12:52:46.744Z,17.74
2022-09-17T12:55:25.831Z,17.74
2022-09-17T12:58:02.141Z,17.75
2022-09-17T13:00:40.750Z,17.75
2022-09-17T13:03:19.638Z,17.75
2022-09-17T13:06:13.079Z,17.78
2022-09-17T13:09:02.004Z,17.79
2022-09-17T13:11:58.027Z,17.89
2022-09-17T13:14:32.439Z,17.92
2022-09-17T13:17:21.087Z,17.83
2022-09-17T13:19:59.611Z,17.83
2022-09-17T13:22:33.401Z,17.81
2022-09-17T13:25:05.845Z,17.79
2022-09-17T13:27:36.241Z,17.83
2022-09-17T13:30:06.141Z,17.92
2022-09-17T13:32:52.035Z,17.89
2022-09-17T13:35:50.760Z,17.86
2022-09-17T13:38:24.013Z,17.86
2022-09-17T13:40:53.479Z,17.85
2022-09-17T13:43:26.946Z,17.85
2022-09-17T13:46:13.066Z,17.85
2022-09-17T13:48:49.282Z,17.83
2022-09-17T13:51:52.546Z,17.81
2022-09-17T13:54:25.326Z,17.79
2022-09-17T13:57:15.773Z,17.78
2022-09-17T13:59:55.706Z,17.87
2022-09-17T14:02:39.260Z,17.89
2022-09-17T14:05:40.800Z,17.85
2022-09-17T14:08:31.153Z,17.89
2022-09-17T14:11:02.191Z,17.89
2022-09-17T14:13:44.809Z,17.89
2022-09-17T14:16:40.429Z,17.89
2022-09-17T14:19:46.679Z,17.87
2022-09-17T14:22:26.456Z,17.90
2022-09-17T14:24:56.798Z,17.90
2022-09-17T14:27:46.158Z,17.90
2022-09-17T14:30:17.658Z,17.91
2022-09-17T14:32:52.530Z,17.88
2022-09-17T14:35:24.586Z,17.87
2022-09-17T14:37:56.690Z,17.85
2022-09-17T14:40:31.319Z,17.85
2022-09-17T14:43:03.170Z,17.83
2022-09-17T14:45:33.978Z,17.83
2022-09-17T14:48:25.466Z,17.84
2022-09-17T14:50:54.168Z,17.82
2022-09-17T14:53:22.860Z,17.81
2022-09-17T14:55:52.855Z,17.78
2022-09-17T14:58:30.262Z,17.76
2022-09-17T15:00:59.799Z,17.75
2022-09-17T15:03:29.230Z,17.79
2022-09-17T15:05:57.770Z,17.82
2022-09-17T15:08:31.000Z,17.83
2022-09-17T15:11:16.387Z,17.88
2022-09-17T15:13:54.223Z,17.83
2022-09-17T15:16:25.625Z,17.83
2022-09-17T15:18:55.983Z,17.84
2022-09-17T15:21:30.872Z,17.83
2022-09-17T15:24:04.217Z,17.84
2022-09-17T15:26:37.257Z,17.84
2022-09-17T15:29:06.591Z,17.81
2022-09-17T15:31:36.861Z,17.81
2022-09-17T15:34:06.972Z,17.83
2022-09-17T15:36:37.295Z,17.84
2022-09-17T15:39:30.039Z,17.90
2022-09-17T15:41:59.806Z,17.94
2022-09-17T15:44:34.855Z,17.96
2022-09-17T15:47:38.520Z,17.96
2022-09-17T15:50:17.708Z,17.97
2022-09-17T15:52:47.599Z,17.96
2022-09-17T15:55:44.071Z,17.95
2022-09-17T15:58:25.799Z,17.96
2022-09-17T16:01:35.117Z,17.95
2022-09-17T16:04:19.911Z,17.98
2022-09-17T16:06:53.147Z,18.03
2022-09-17T16:09:46.764Z,18.01
2022-09-17T16:12:18.201Z,17.97
2022-09-17T16:14:54.968Z,18.00
2022-09-17T16:17:35.401Z,18.02
2022-09-17T16:20:10.749Z,18.02
2022-09-17T16:22:39.424Z,18.01
2022-09-17T16:25:08.884Z,18.09
2022-09-17T16:27:46.467Z,18.08
2022-09-17T16:30:18.732Z,18.09
2022-09-17T16:32:48.068Z,18.07
2022-09-17T16:35:17.984Z,18.08
2022-09-17T16:37:50.708Z,18.05
2022-09-17T16:40:20.038Z,18.05
2022-09-17T16:42:48.995Z,18.05
2022-09-17T16:45:20.228Z,18.03
2022-09-17T16:47:48.742Z,18.03
2022-09-17T16:50:18.604Z,18.02
2022-09-17T16:52:47.592Z,17.99
2022-09-17T16:55:18.145Z,17.96
2022-09-17T16:57:47.190Z,17.94
2022-09-17T17:00:19.508Z,17.92
2022-09-17T17:02:55.867Z,17.90
2022-09-17T17:05:25.635Z,17.89
2022-09-17T17:07:55.368Z,17.89
2022-09-17T17:10:26.558Z,17.88
2022-09-17T17:13:01.904Z,17.88
2022-09-17T17:15:32.343Z,17.92
2022-09-17T17:18:02.444Z,17.87
2022-09-17T17:20:32.051Z,17.87
2022-09-17T17:23:00.560Z,17.88
2022-09-17T17:25:31.270Z,17.87
2022-09-17T17:27:59.763Z,17.87
2022-09-17T17:30:34.757Z,17.85
2022-09-17T17:33:07.213Z,17.86
2022-09-17T17:35:40.108Z,17.84
2022-09-17T17:38:08.964Z,17.82
2022-09-17T17:40:37.983Z,17.81
2022-09-17T17:43:06.684Z,17.75
2022-09-17T17:45:36.393Z,17.78
2022-09-17T17:48:06.820Z,17.77
2022-09-17T17:50:36.523Z,17.73
2022-09-17T17:53:05.656Z,17.73
2022-09-17T17:55:35.441Z,17.69
2022-09-17T17:58:04.795Z,17.74
2022-09-17T18:00:33.786Z,17.76
2022-09-17T18:03:02.526Z,17.73
2022-09-17T18:05:32.380Z,17.73
2022-09-17T18:08:00.890Z,17.73
2022-09-17T18:10:29.510Z,17.72
2022-09-17T18:12:58.109Z,17.75
2022-09-17T18:15:26.607Z,17.75
2022-09-17T18:17:55.416Z,17.73
2022-09-17T18:20:24.321Z,17.73
2022-09-17T18:22:54.615Z,17.70
2022-09-17T18:25:23.172Z,17.73
2022-09-17T18:27:51.572Z,17.69
2022-09-17T18:30:22.339Z,17.72
2022-09-17T18:32:53.007Z,17.72
2022-09-17T18:35:23.015Z,17.76
2022-09-17T18:37:51.555Z,17.76
2022-09-17T18:40:21.737Z,17.75
2022-09-17T18:42:50.770Z,17.75
2022-09-17T18:45:19.392Z,17.75
2022-09-17T18:47:47.865Z,17.75
2022-09-17T18:50:16.699Z,17.71
2022-09-17T18:52:45.118Z,17.67
2022-09-17T18:55:13.773Z,17.66
2022-09-17T18:57:43.679Z,17.63
2022-09-17T19:00:12.474Z,17.61
2022-09-17T19:02:42.034Z,17.61
2022-09-17T19:05:11.789Z,17.60
2022-09-17T19:07:44.677Z,17.59
2022-09-17T19:10:13.357Z,17.61
2022-09-17T19:12:43.221Z,17.57
2022-09-17T19:15:12.740Z,17.60
2022-09-17T19:17:41.178Z,17.61
2022-09-17T19:20:10.301Z,17.59
2022-09-17T19:22:39.068Z,17.57
2022-09-17T19:25:09.518Z,17.56
2022-09-17T19:27:38.037Z,17.58
2022-09-17T19:30:09.220Z,17.55
2022-09-17T19:32:41.264Z,17.60
2022-09-17T19:35:12.184Z,17.57
2022-09-17T19:37:40.827Z,17.53
2022-09-17T19:40:10.702Z,17.56
2022-09-17T19:42:39.265Z,17.58
2022-09-17T19:45:10.374Z,17.58
2022-09-17T19:47:38.868Z,17.49
2022-09-17T19:50:07.730Z,17.48
2022-09-17T19:52:36.181Z,17.46
2022-09-17T19:55:06.185Z,17.41
2022-09-17T19:57:38.450Z,17.38
2022-09-17T20:00:10.649Z,17.39
2022-09-17T20:02:39.296Z,17.37
2022-09-17T20:05:08.325Z,17.34
2022-09-17T20:07:36.809Z,17.35
2022-09-17T20:10:06.029Z,17.30
2022-09-17T20:12:34.589Z,17.30
2022-09-17T20:15:04.595Z,17.32
2022-09-17T20:17:34.484Z,17.29
2022-09-17T20:20:03.486Z,17.29
2022-09-17T20:22:31.952Z,17.26
2022-09-17T20:25:00.389Z,17.23
2022-09-17T20:27:28.819Z,17.21
2022-09-17T20:29:57.236Z,17.23
2022-09-17T20:32:25.745Z,17.21
2022-09-17T20:34:55.724Z,17.24
2022-09-17T20:37:55.252Z,17.28
2022-09-17T20:40:15.889Z,17.28
2022-09-17T20:42:44.469Z,17.27
2022-09-17T20:45:13.052Z,17.20
2022-09-17T20:47:41.825Z,17.17
2022-09-17T20:50:11.667Z,17.24
2022-09-17T20:52:40.108Z,17.23
2022-09-17T20:55:09.432Z,17.22
2022-09-17T20:57:38.000Z,17.26
2022-09-17T21:00:18.777Z,17.27
2022-09-17T21:02:50.742Z,17.30
2022-09-17T21:05:20.541Z,17.32
2022-09-17T21:07:49.093Z,17.31
2022-09-17T21:10:17.623Z,17.33
2022-09-17T21:12:46.149Z,17.27
2022-09-17T21:15:14.934Z,17.26
2022-09-17T21:17:45.424Z,17.24
2022-09-17T21:20:14.149Z,17.21
2022-09-17T21:22:44.117Z,17.24
2022-09-17T21:25:12.562Z,17.25
2022-09-17T21:27:40.962Z,17.28
2022-09-17T21:30:10.755Z,17.22
2022-09-17T21:32:39.323Z,17.12
2022-09-17T21:35:08.285Z,17.08
2022-09-17T21:37:36.777Z,17.12
2022-09-17T21:40:08.353Z,17.13
2022-09-17T21:42:38.784Z,17.09
2022-09-17T21:45:08.030Z,17.03
2022-09-17T21:47:36.487Z,17.11
2022-09-17T21:50:05.572Z,17.12
2022-09-17T21:52:35.693Z,17.08
2022-09-17T21:55:04.437Z,17.12
2022-09-17T21:57:34.281Z,17.09
2022-09-17T22:00:03.553Z,17.14
2022-09-17T22:02:33.661Z,17.09
2022-09-17T22:05:02.185Z,17.07
2022-09-17T22:07:31.201Z,17.11
2022-09-17T22:09:59.579Z,17.16
2022-09-17T22:12:28.091Z,17.12
2022-09-17T22:14:57.855Z,17.11
2022-09-17T22:17:26.383Z,17.10
2022-09-17T22:19:54.836Z,16.97
2022-09-17T22:22:23.332Z,16.91
2022-09-17T22:24:51.743Z,16.99
2022-09-17T22:27:20.240Z,17.03
2022-09-17T22:29:48.676Z,16.99
2022-09-17T22:32:18.597Z,16.99
2022-09-17T22:34:47.035Z,16.96
2022-09-17T22:37:16.072Z,16.95
2022-09-17T22:39:44.510Z,17.00
2022-09-17T22:42:13.062Z,16.98
2022-09-17T22:44:41.786Z,17.00
2022-09-17T22:47:10.391Z,16.94
2022-09-17T22:49:40.175Z,16.89
2022-09-17T22:52:08.585Z,16.83
2022-09-17T22:54:40.864Z,16.82
2022-09-17T22:57:09.256Z,16.87
2022-09-17T22:59:37.648Z,16.88
2022-09-17T23:02:06.217Z,16.89
2022-09-17T23:04:34.787Z,16.88
2022-09-17T23:07:04.631Z,16.86
2022-09-17T23:09:33.158Z,16.91
2022-09-17T23:12:01.783Z,16.83
2022-09-17T23:14:30.241Z,16.79
2022-09-17T23:16:58.702Z,16.79
2022-09-17T23:19:27.333Z,16.82
2022-09-17T23:21:55.817Z,16.82
2022-09-17T23:24:25.704Z,16.79
2022-09-17T23:26:54.148Z,16.74
2022-09-17T23:29:22.621Z,16.72
2022-09-17T23:31:51.154Z,16.66
2022-09-17T23:34:19.864Z,16.70
2022-09-17T23:36:48.712Z,16.62
2022-09-17T23:39:17.088Z,16.68
2022-09-17T23:41:48.029Z,16.67
2022-09-17T23:44:17.076Z,16.66
2022-09-17T23:46:46.605Z,16.63
2022-09-17T23:49:16.031Z,16.54
2022-09-17T23:51:47.083Z,16.57
2022-09-17T23:54:15.631Z,16.60
2022-09-17T23:56:44.275Z,16.55
2022-09-17T23:59:14.187Z,16.58
